Weather at Altamira Airport

Public forecast

Using degrees Celsius for public forecast. Weather courtesy of forecast.io.

Closest aviation weather report (METAR) to Altamira Airport

Closest report is Juigalpa Airport, 20.6 nm (38.2 km) E.

(retrieved 0 seconds ago)

Closest aviation forecast (TAF) to Altamira Airport

Closest forecast is Monse├▒or ├ôscar Arnulfo Romero International Airport, 210.6 nm (390.1 km) WNW.

2024/06/21 18:50 (retrieved 6 hours ago)

TAF MSLP 211617Z 2118/2218 13006G16KT 3000 +RA SCT007 OVC020 TX24/2118Z TN23/2210Z FM212200 07006KT 5000 RA SCT010 OVC023 FM220600 VRB02KT 9999 FEW020 SCT070 FM221200 04005KT 9999 FEW020